createdAt,value
2022-08-21T00:00:24.879Z,100724.41
2022-08-21T00:02:56.050Z,100721.22
2022-08-21T00:05:24.646Z,100724.56
2022-08-21T00:07:52.008Z,100718.88
2022-08-21T00:10:19.719Z,100716.84
2022-08-21T00:12:46.617Z,100711.81
2022-08-21T00:15:17.187Z,100718.69
2022-08-21T00:17:44.040Z,100708.63
2022-08-21T00:20:12.730Z,100719.28
2022-08-21T00:22:39.790Z,100712.47
2022-08-21T00:25:07.866Z,100716.78
2022-08-21T00:27:34.678Z,100717.75
2022-08-21T00:30:01.831Z,100712.94
2022-08-21T00:32:29.282Z,100715.81
2022-08-21T00:34:56.529Z,100703.69
2022-08-21T00:37:23.514Z,100709.84
2022-08-21T00:39:50.138Z,100708.19
2022-08-21T00:42:18.466Z,100714.63
2022-08-21T00:44:47.293Z,100722.34
2022-08-21T00:47:14.242Z,100714.00
2022-08-21T00:49:41.324Z,100717.16
2022-08-21T00:52:12.001Z,100713.81
2022-08-21T00:54:40.577Z,100717.19
2022-08-21T00:57:26.874Z,100719.53
2022-08-21T00:59:59.230Z,100718.78
2022-08-21T01:02:26.604Z,100718.97
2022-08-21T01:04:53.647Z,100721.63
2022-08-21T01:07:20.990Z,100722.84
2022-08-21T01:09:49.696Z,100727.59
2022-08-21T01:12:16.661Z,100731.28
2022-08-21T01:14:44.901Z,100729.34
2022-08-21T01:17:13.832Z,100726.59
2022-08-21T01:19:40.931Z,100734.72
2022-08-21T01:22:07.689Z,100736.56
2022-08-21T01:24:34.238Z,100735.38
2022-08-21T01:27:01.810Z,100731.81
2022-08-21T01:29:48.529Z,100725.66
2022-08-21T01:32:18.817Z,100723.94
2022-08-21T01:34:47.960Z,100722.59
2022-08-21T01:37:15.287Z,100722.59
2022-08-21T01:39:45.541Z,100716.22
2022-08-21T01:42:14.908Z,100713.50
2022-08-21T01:44:42.448Z,100714.44
2022-08-21T01:47:12.328Z,100709.44
2022-08-21T01:49:39.778Z,100716.34
2022-08-21T01:52:06.805Z,100709.50
2022-08-21T01:54:36.936Z,100706.31
2022-08-21T01:57:04.587Z,100711.88
2022-08-21T01:59:31.760Z,100704.88
2022-08-21T02:01:58.415Z,100704.75
2022-08-21T02:04:25.668Z,100701.78
2022-08-21T02:06:52.444Z,100701.53
2022-08-21T02:09:19.743Z,100704.69
2022-08-21T02:11:47.054Z,100702.25
2022-08-21T02:14:15.666Z,100703.94
2022-08-21T02:17:05.292Z,100705.97
2022-08-21T02:19:40.011Z,100696.09
2022-08-21T02:22:10.282Z,100697.50
2022-08-21T02:24:53.806Z,100700.66
2022-08-21T02:27:24.662Z,100706.81
2022-08-21T02:29:54.880Z,100700.91
2022-08-21T02:32:22.357Z,100697.88
2022-08-21T02:34:49.790Z,100702.25
2022-08-21T02:37:16.387Z,100692.16
2022-08-21T02:39:42.995Z,100698.00
2022-08-21T02:42:09.599Z,100701.50
2022-08-21T02:44:36.175Z,100702.19
2022-08-21T02:47:03.115Z,100700.81
2022-08-21T02:49:29.654Z,100703.91
2022-08-21T02:51:56.705Z,100701.13
2022-08-21T02:54:23.260Z,100697.75
2022-08-21T02:56:50.530Z,100694.19
2022-08-21T02:59:17.117Z,100689.75
2022-08-21T03:01:45.134Z,100685.56
2022-08-21T03:04:11.760Z,100683.94
2022-08-21T03:06:38.559Z,100679.09
2022-08-21T03:09:05.179Z,100672.50
2022-08-21T03:11:31.714Z,100683.28
2022-08-21T03:13:58.413Z,100677.03
2022-08-21T03:16:24.985Z,100681.75
2022-08-21T03:18:51.543Z,100671.34
2022-08-21T03:21:19.812Z,100673.56
2022-08-21T03:23:46.708Z,100673.56
2022-08-21T03:26:13.875Z,100669.25
2022-08-21T03:28:40.580Z,100674.03
2022-08-21T03:31:07.150Z,100672.06
2022-08-21T03:33:33.941Z,100668.41
2022-08-21T03:36:07.739Z,100666.38
2022-08-21T03:38:35.864Z,100669.75
2022-08-21T03:41:04.542Z,100669.75
2022-08-21T03:43:32.519Z,100668.88
2022-08-21T03:46:02.294Z,100668.44
2022-08-21T03:48:29.483Z,100670.59
2022-08-21T03:50:56.480Z,100670.59
2022-08-21T03:53:23.190Z,100666.59
2022-08-21T03:55:51.789Z,100662.47
2022-08-21T03:58:21.314Z,100666.81
2022-08-21T04:00:53.442Z,100658.25
2022-08-21T04:03:20.821Z,100668.88
2022-08-21T04:05:47.942Z,100665.22
2022-08-21T04:08:18.767Z,100665.81
2022-08-21T04:10:47.393Z,100667.25
2022-08-21T04:13:15.968Z,100660.47
2022-08-21T04:15:43.568Z,100671.66
2022-08-21T04:18:10.771Z,100667.97
2022-08-21T04:20:38.455Z,100672.41
2022-08-21T04:23:05.150Z,100670.34
2022-08-21T04:25:32.713Z,100669.34
2022-08-21T04:27:59.383Z,100678.19
2022-08-21T04:30:28.461Z,100682.91
2022-08-21T04:32:57.558Z,100683.28
2022-08-21T04:35:26.367Z,100686.47
2022-08-21T04:37:53.162Z,100688.19
2022-08-21T04:40:21.423Z,100682.19
2022-08-21T04:42:50.723Z,100684.94
2022-08-21T04:45:24.256Z,100694.56
2022-08-21T04:47:53.501Z,100693.47
2022-08-21T04:50:25.778Z,100689.91
2022-08-21T04:53:06.313Z,100695.81
2022-08-21T04:55:33.352Z,100695.81
2022-08-21T04:58:01.043Z,100691.16
2022-08-21T05:00:27.774Z,100697.69
2022-08-21T05:02:57.843Z,100691.00
2022-08-21T05:05:25.465Z,100707.25
2022-08-21T05:07:54.105Z,100703.97
2022-08-21T05:10:21.511Z,100702.16
2022-08-21T05:12:48.292Z,100705.75
2022-08-21T05:15:17.584Z,100700.75
2022-08-21T05:17:44.252Z,100695.28
2022-08-21T05:20:20.734Z,100704.97
2022-08-21T05:22:47.318Z,100707.59
2022-08-21T05:25:14.476Z,100710.78
2022-08-21T05:27:43.413Z,100713.19
2022-08-21T05:30:10.894Z,100713.19
2022-08-21T05:32:37.680Z,100716.06
2022-08-21T05:35:08.482Z,100716.97
2022-08-21T05:37:35.911Z,100723.66
2022-08-21T05:40:20.034Z,100718.31
2022-08-21T05:42:56.011Z,100726.13
2022-08-21T05:45:42.672Z,100721.91
2022-08-21T05:48:12.044Z,100721.34
2022-08-21T05:50:39.144Z,100730.47
2022-08-21T05:53:07.638Z,100731.00
2022-08-21T05:55:36.362Z,100723.50
2022-08-21T05:58:04.099Z,100730.44
2022-08-21T06:00:30.871Z,100721.44
2022-08-21T06:02:57.770Z,100727.31
2022-08-21T06:05:25.202Z,100718.56
2022-08-21T06:08:04.072Z,100715.38
2022-08-21T06:10:30.840Z,100719.66
2022-08-21T06:12:57.591Z,100717.56
2022-08-21T06:15:24.398Z,100713.31
2022-08-21T06:17:51.055Z,100711.50
2022-08-21T06:20:17.963Z,100713.09
2022-08-21T06:22:44.540Z,100715.03
2022-08-21T06:25:11.474Z,100711.66
2022-08-21T06:27:38.909Z,100706.66
2022-08-21T06:30:07.679Z,100713.22
2022-08-21T06:32:35.498Z,100713.25
2022-08-21T06:35:02.104Z,100712.34
2022-08-21T06:37:28.695Z,100720.63
2022-08-21T06:39:55.435Z,100724.06
2022-08-21T06:42:22.374Z,100727.72
2022-08-21T06:44:55.720Z,100733.97
2022-08-21T06:47:22.847Z,100737.03
2022-08-21T06:49:49.563Z,100743.03
2022-08-21T06:52:16.627Z,100752.66
2022-08-21T06:54:43.740Z,100756.69
2022-08-21T06:57:10.395Z,100755.16
2022-08-21T06:59:37.091Z,100755.69
2022-08-21T07:02:04.275Z,100750.34
2022-08-21T07:04:30.991Z,100751.16
2022-08-21T07:06:57.526Z,100748.81
2022-08-21T07:09:25.022Z,100749.50
2022-08-21T07:11:55.839Z,100748.47
2022-08-21T07:14:23.205Z,100744.56
2022-08-21T07:16:51.698Z,100753.63
2022-08-21T07:19:19.058Z,100754.34
2022-08-21T07:21:46.058Z,100753.59
2022-08-21T07:24:12.991Z,100744.72
2022-08-21T07:26:39.902Z,100746.16
2022-08-21T07:29:06.499Z,100749.41
2022-08-21T07:31:33.147Z,100746.00
2022-08-21T07:33:59.870Z,100739.72
2022-08-21T07:36:26.575Z,100753.25
2022-08-21T07:38:53.429Z,100741.00
2022-08-21T07:41:23.722Z,100743.75
2022-08-21T07:43:52.735Z,100738.78
2022-08-21T07:46:20.387Z,100745.00
2022-08-21T07:48:47.010Z,100735.13
2022-08-21T07:51:16.158Z,100732.47
2022-08-21T07:53:42.892Z,100739.03
2022-08-21T07:56:09.931Z,100729.44
2022-08-21T07:58:36.551Z,100732.41
2022-08-21T08:01:03.281Z,100733.22
2022-08-21T08:03:29.927Z,100732.56
2022-08-21T08:05:57.783Z,100740.13
2022-08-21T08:08:25.449Z,100736.25
2022-08-21T08:10:54.255Z,100743.22
2022-08-21T08:16:49.504Z,100728.91
2022-08-21T08:19:16.060Z,100727.81
2022-08-21T08:21:42.969Z,100716.63
2022-08-21T08:24:19.227Z,100722.19
2022-08-21T08:26:46.832Z,100728.47
2022-08-21T08:29:21.210Z,100725.34
2022-08-21T08:31:48.032Z,100724.66
2022-08-21T08:34:25.515Z,100733.25
2022-08-21T08:36:52.780Z,100718.75
2022-08-21T08:39:26.853Z,100728.25
2022-08-21T08:42:33.616Z,100712.75
2022-08-21T08:45:12.987Z,100713.47
2022-08-21T08:47:46.050Z,100711.66
2022-08-21T08:50:41.204Z,100710.75
2022-08-21T08:53:23.133Z,100702.94
2022-08-21T08:55:53.067Z,100706.44
2022-08-21T08:58:25.746Z,100699.69
2022-08-21T09:00:54.862Z,100693.00
2022-08-21T09:03:23.260Z,100685.72
2022-08-21T09:06:07.654Z,100690.63
2022-08-21T09:08:43.995Z,100673.44
2022-08-21T09:11:27.809Z,100681.13
2022-08-21T09:13:57.079Z,100682.31
2022-08-21T09:16:37.530Z,100673.63
2022-08-21T09:19:24.797Z,100677.78
2022-08-21T09:22:03.950Z,100667.31
2022-08-21T09:25:01.989Z,100663.69
2022-08-21T09:27:31.068Z,100670.28
2022-08-21T09:29:59.190Z,100665.66
2022-08-21T09:32:37.829Z,100675.31
2022-08-21T09:35:20.669Z,100668.94
2022-08-21T09:37:54.923Z,100669.78
2022-08-21T09:40:36.499Z,100673.34
2022-08-21T09:43:12.010Z,100664.28
2022-08-21T09:45:40.676Z,100666.72
2022-08-21T09:48:20.496Z,100661.53
2022-08-21T09:50:48.577Z,100659.81
2022-08-21T09:53:22.492Z,100655.84
2022-08-21T09:56:17.259Z,100659.72
2022-08-21T09:58:50.308Z,100654.78
2022-08-21T10:01:23.836Z,100651.72
2022-08-21T10:04:08.482Z,100659.16
2022-08-21T10:06:35.968Z,100649.25
2022-08-21T10:09:21.797Z,100645.91
2022-08-21T10:12:11.115Z,100645.13
2022-08-21T10:14:53.283Z,100639.72
2022-08-21T10:17:38.727Z,100641.19
2022-08-21T10:20:08.683Z,100644.72
2022-08-21T10:22:56.440Z,100653.19
2022-08-21T10:25:50.314Z,100637.78
2022-08-21T10:28:57.867Z,100632.91
2022-08-21T10:31:40.512Z,100638.19
2022-08-21T10:34:16.908Z,100634.88
2022-08-21T10:37:08.336Z,100627.13
2022-08-21T10:39:42.594Z,100633.53
2022-08-21T10:42:32.482Z,100637.53
2022-08-21T10:44:58.996Z,100638.50
2022-08-21T10:47:33.731Z,100637.69
2022-08-21T10:50:20.808Z,100638.84
2022-08-21T10:53:01.635Z,100629.66
2022-08-21T10:55:36.880Z,100630.81
2022-08-21T10:58:10.488Z,100633.75
2022-08-21T11:00:46.086Z,100636.06
2022-08-21T11:03:26.762Z,100636.91
2022-08-21T11:06:05.035Z,100631.13
2022-08-21T11:08:47.762Z,100631.03
2022-08-21T11:11:35.868Z,100636.81
2022-08-21T11:14:12.231Z,100636.00
2022-08-21T11:16:43.590Z,100637.44
2022-08-21T11:19:19.626Z,100634.94
2022-08-21T11:21:55.404Z,100637.88
2022-08-21T11:24:32.818Z,100641.00
2022-08-21T11:27:16.033Z,100635.00
2022-08-21T11:29:46.345Z,100639.34
2022-08-21T11:32:52.466Z,100638.56
2022-08-21T11:35:48.255Z,100637.94
2022-08-21T11:38:35.702Z,100638.31
2022-08-21T11:41:26.054Z,100628.44
2022-08-21T11:44:03.692Z,100636.03
2022-08-21T11:46:47.910Z,100639.81
2022-08-21T11:49:43.025Z,100629.25
2022-08-21T11:52:19.730Z,100632.78
2022-08-21T11:55:08.821Z,100630.75
2022-08-21T11:57:47.715Z,100627.09
2022-08-21T12:00:21.611Z,100633.06
2022-08-21T12:02:54.671Z,100623.38
2022-08-21T12:05:32.545Z,100626.06
2022-08-21T12:08:15.553Z,100626.59
2022-08-21T12:11:03.118Z,100633.91
2022-08-21T12:13:35.691Z,100630.00
2022-08-21T12:16:28.656Z,100620.09
2022-08-21T12:19:13.234Z,100624.47
2022-08-21T12:21:57.974Z,100632.56
2022-08-21T12:24:28.061Z,100631.63
2022-08-21T12:26:57.821Z,100630.25
2022-08-21T12:29:37.034Z,100628.28
2022-08-21T12:32:15.782Z,100630.06
2022-08-21T12:35:03.195Z,100631.75
2022-08-21T12:37:41.093Z,100635.56
2022-08-21T12:40:30.896Z,100620.72
2022-08-21T12:43:01.964Z,100623.72
2022-08-21T12:45:42.726Z,100624.28
2022-08-21T12:48:15.323Z,100622.34
2022-08-21T12:50:48.738Z,100615.69
2022-08-21T12:53:34.547Z,100610.78
2022-08-21T12:56:09.907Z,100611.59
2022-08-21T12:58:36.843Z,100621.91
2022-08-21T13:01:08.731Z,100623.66
2022-08-21T13:03:38.258Z,100617.28
2022-08-21T13:06:06.493Z,100604.00
2022-08-21T13:08:40.779Z,100613.91
2022-08-21T13:11:09.196Z,100604.13
2022-08-21T13:13:46.791Z,100614.34
2022-08-21T13:16:14.351Z,100609.94
2022-08-21T13:18:57.992Z,100611.50
2022-08-21T13:21:31.135Z,100601.81
2022-08-21T13:24:40.705Z,100597.72
2022-08-21T13:27:04.512Z,100601.66
2022-08-21T13:29:38.582Z,100597.13
2022-08-21T13:32:07.843Z,100598.25
2022-08-21T13:34:37.714Z,100597.72
2022-08-21T13:37:07.939Z,100598.91
2022-08-21T13:39:35.605Z,100601.03
2022-08-21T13:42:07.086Z,100593.66
2022-08-21T13:44:41.609Z,100589.56
2022-08-21T13:47:11.700Z,100590.69
2022-08-21T13:49:43.211Z,100588.81
2022-08-21T13:52:22.893Z,100587.97
2022-08-21T13:55:08.626Z,100592.38
2022-08-21T13:57:37.871Z,100591.13
2022-08-21T14:00:15.405Z,100591.38
2022-08-21T14:02:44.512Z,100587.38
2022-08-21T14:05:29.794Z,100597.56
2022-08-21T14:08:14.503Z,100590.34
2022-08-21T14:10:56.063Z,100593.41
2022-08-21T14:13:38.192Z,100594.09
2022-08-21T14:16:12.302Z,100592.25
2022-08-21T14:18:52.531Z,100588.97
2022-08-21T14:21:30.963Z,100591.47
2022-08-21T14:24:07.456Z,100585.38
2022-08-21T14:26:37.398Z,100585.34
2022-08-21T14:29:10.700Z,100590.59
2022-08-21T14:31:40.339Z,100585.44
2022-08-21T14:34:19.779Z,100585.81
2022-08-21T14:36:47.796Z,100581.88
2022-08-21T14:39:14.451Z,100588.13
2022-08-21T14:41:41.170Z,100587.69
2022-08-21T14:44:09.831Z,100582.38
2022-08-21T14:46:51.610Z,100591.09
2022-08-21T14:49:27.203Z,100588.59
2022-08-21T14:51:58.076Z,100593.31
2022-08-21T14:54:31.914Z,100591.09
2022-08-21T14:57:02.055Z,100584.94
2022-08-21T14:59:28.960Z,100591.06
2022-08-21T15:01:57.093Z,100585.47
2022-08-21T15:04:23.752Z,100579.09
2022-08-21T15:06:50.376Z,100588.16
2022-08-21T15:09:17.162Z,100587.19
2022-08-21T15:11:44.345Z,100588.53
2022-08-21T15:14:20.942Z,100589.66
2022-08-21T15:16:48.922Z,100590.88
2022-08-21T15:19:15.652Z,100577.25
2022-08-21T15:21:42.465Z,100580.41
2022-08-21T15:24:09.295Z,100584.69
2022-08-21T15:26:36.912Z,100581.69
2022-08-21T15:29:06.950Z,100572.38
2022-08-21T15:31:34.422Z,100572.78
2022-08-21T15:34:00.958Z,100576.66
2022-08-21T15:36:28.380Z,100568.38
2022-08-21T15:38:54.971Z,100573.59
2022-08-21T15:41:22.021Z,100561.69
2022-08-21T15:43:52.641Z,100570.81
2022-08-21T15:46:21.313Z,100564.13
2022-08-21T15:48:48.627Z,100568.09
2022-08-21T15:51:16.784Z,100567.22
2022-08-21T15:53:45.351Z,100568.19
2022-08-21T15:56:21.065Z,100567.28
2022-08-21T15:58:49.460Z,100571.84
2022-08-21T16:01:16.394Z,100567.69
2022-08-21T16:03:47.734Z,100566.50
2022-08-21T16:06:14.275Z,100560.47
2022-08-21T16:08:41.030Z,100565.84
2022-08-21T16:11:07.734Z,100562.34
2022-08-21T16:13:38.583Z,100566.63
2022-08-21T16:16:06.439Z,100563.41
2022-08-21T16:18:33.166Z,100571.13
2022-08-21T16:20:59.799Z,100555.31
2022-08-21T16:23:26.339Z,100560.41
2022-08-21T16:25:52.915Z,100561.38
2022-08-21T16:28:21.698Z,100557.06
2022-08-21T16:30:51.011Z,100551.59
2022-08-21T16:33:25.392Z,100561.38
2022-08-21T16:35:52.340Z,100555.22
2022-08-21T16:38:19.371Z,100561.63
2022-08-21T16:40:46.056Z,100558.25
2022-08-21T16:43:12.721Z,100568.97
2022-08-21T16:45:43.910Z,100564.00
2022-08-21T16:48:11.015Z,100558.59
2022-08-21T16:50:37.983Z,100557.63
2022-08-21T16:53:07.015Z,100556.88
2022-08-21T16:55:38.378Z,100553.41
2022-08-21T16:58:10.586Z,100555.94
2022-08-21T17:00:37.276Z,100549.25
2022-08-21T17:03:04.301Z,100553.19
2022-08-21T17:05:30.854Z,100550.59
2022-08-21T17:07:57.440Z,100553.03
2022-08-21T17:10:24.022Z,100551.06
2022-08-21T17:12:57.243Z,100544.66
2022-08-21T17:15:29.582Z,100553.16
2022-08-21T17:17:56.612Z,100551.06
2022-08-21T17:20:24.410Z,100551.94
2022-08-21T17:22:51.044Z,100559.72
2022-08-21T17:25:17.688Z,100564.84
2022-08-21T17:27:47.389Z,100562.41
2022-08-21T17:30:15.549Z,100559.81
2022-08-21T17:32:44.676Z,100560.75
2022-08-21T17:35:12.948Z,100558.72
2022-08-21T17:37:40.480Z,100550.16
2022-08-21T17:40:10.632Z,100553.31
2022-08-21T17:42:37.240Z,100551.28
2022-08-21T17:45:04.818Z,100553.78
2022-08-21T17:47:32.727Z,100557.53
2022-08-21T17:49:59.360Z,100559.00
2022-08-21T17:52:27.282Z,100559.69
2022-08-21T17:54:53.846Z,100557.53
2022-08-21T17:57:23.037Z,100569.53
2022-08-21T17:59:51.607Z,100575.19
2022-08-21T18:02:21.711Z,100573.44
2022-08-21T18:04:54.984Z,100574.78
2022-08-21T18:07:32.273Z,100568.97
2022-08-21T18:10:05.493Z,100574.22
2022-08-21T18:12:33.368Z,100578.72
2022-08-21T18:15:01.024Z,100582.13
2022-08-21T18:17:29.590Z,100576.06
2022-08-21T18:19:56.424Z,100571.34
2022-08-21T18:22:23.001Z,100579.56
2022-08-21T18:24:49.841Z,100575.31
2022-08-21T18:27:17.596Z,100582.50
2022-08-21T18:29:47.745Z,100581.81
2022-08-21T18:32:31.097Z,100584.38
2022-08-21T18:35:02.935Z,100583.44
2022-08-21T18:37:30.076Z,100586.53
2022-08-21T18:39:56.907Z,100582.66
2022-08-21T18:42:29.087Z,100591.03
2022-08-21T18:45:00.941Z,100582.72
2022-08-21T18:47:36.962Z,100581.69
2022-08-21T18:50:05.845Z,100591.97
2022-08-21T18:52:38.238Z,100588.25
2022-08-21T18:55:09.304Z,100594.47
2022-08-21T18:57:41.464Z,100589.81
2022-08-21T19:00:12.194Z,100597.13
2022-08-21T19:02:40.478Z,100589.28
2022-08-21T19:05:13.503Z,100597.69
2022-08-21T19:07:40.373Z,100596.50
2022-08-21T19:13:01.069Z,100605.31
2022-08-21T19:18:17.551Z,100602.16
2022-08-21T19:20:47.393Z,100607.16
2022-08-21T19:23:16.314Z,100613.44
2022-08-21T19:25:51.857Z,100610.72
2022-08-21T19:28:25.896Z,100621.41
2022-08-21T19:33:50.670Z,100638.38
2022-08-21T19:36:17.898Z,100635.78
2022-08-21T19:38:45.622Z,100631.75
2022-08-21T19:41:15.795Z,100636.94
2022-08-21T19:43:47.354Z,100635.72
2022-08-21T19:46:29.803Z,100635.66
2022-08-21T19:48:57.591Z,100635.47
2022-08-21T19:51:24.586Z,100637.34
2022-08-21T19:56:40.023Z,100640.94
2022-08-21T19:59:09.476Z,100642.44
2022-08-21T20:01:36.146Z,100647.63
2022-08-21T20:04:08.942Z,100643.16
2022-08-21T20:06:45.198Z,100639.22
2022-08-21T20:09:13.487Z,100654.25
2022-08-21T20:11:44.227Z,100641.91
2022-08-21T20:14:13.660Z,100657.75
2022-08-21T20:16:41.525Z,100652.69
2022-08-21T20:19:08.642Z,100655.31
2022-08-21T20:21:43.740Z,100667.25
2022-08-21T20:24:14.724Z,100656.50
2022-08-21T20:26:48.690Z,100666.31
2022-08-21T20:29:24.450Z,100661.50
2022-08-21T20:31:59.934Z,100664.19
2022-08-21T20:34:26.520Z,100665.47
2022-08-21T20:36:53.425Z,100666.13
2022-08-21T20:39:20.322Z,100666.00
2022-08-21T20:41:52.978Z,100675.78
2022-08-21T20:44:19.708Z,100670.28
2022-08-21T20:46:46.628Z,100667.31
2022-08-21T20:49:19.498Z,100678.31
2022-08-21T20:51:51.467Z,100675.72
2022-08-21T20:54:41.545Z,100680.41
2022-08-21T20:57:52.510Z,100682.50
2022-08-21T21:00:21.598Z,100686.13
2022-08-21T21:03:19.116Z,100681.22
2022-08-21T21:06:04.831Z,100691.44
2022-08-21T21:08:36.854Z,100688.84
2022-08-21T21:11:16.476Z,100690.59
2022-08-21T21:13:51.288Z,100687.63
2022-08-21T21:16:24.523Z,100689.91
2022-08-21T21:19:01.610Z,100685.91
2022-08-21T21:21:39.107Z,100686.78
2022-08-21T21:24:19.476Z,100693.69
2022-08-21T21:26:54.047Z,100691.56
2022-08-21T21:29:30.040Z,100682.97
2022-08-21T21:31:56.992Z,100690.28
2022-08-21T21:34:26.715Z,100692.06
2022-08-21T21:37:04.863Z,100689.19
2022-08-21T21:39:53.742Z,100695.28
2022-08-21T21:42:43.863Z,100702.03
2022-08-21T21:45:17.955Z,100701.97
2022-08-21T21:48:03.476Z,100704.91
2022-08-21T21:50:48.362Z,100709.66
2022-08-21T21:53:35.690Z,100716.19
2022-08-21T21:56:27.447Z,100708.94
2022-08-21T21:59:08.322Z,100709.38
2022-08-21T22:01:48.803Z,100704.34
2022-08-21T22:04:30.686Z,100706.78
2022-08-21T22:07:00.090Z,100713.97
2022-08-21T22:09:45.671Z,100708.22
2022-08-21T22:12:49.760Z,100706.44
2022-08-21T22:15:26.516Z,100702.91
2022-08-21T22:18:06.072Z,100709.06
2022-08-21T22:20:40.444Z,100701.41
2022-08-21T22:23:12.673Z,100708.72
2022-08-21T22:25:47.248Z,100706.53
2022-08-21T22:28:22.323Z,100711.53
2022-08-21T22:30:56.403Z,100716.94
2022-08-21T22:33:26.350Z,100714.53
2022-08-21T22:35:57.742Z,100714.66
2022-08-21T22:38:28.220Z,100710.22
2022-08-21T22:41:12.791Z,100709.06
2022-08-21T22:43:55.439Z,100707.75
2022-08-21T22:46:30.786Z,100711.00
2022-08-21T22:49:03.475Z,100712.28
2022-08-21T22:51:40.093Z,100710.91
2022-08-21T22:54:21.673Z,100712.66
2022-08-21T22:57:00.113Z,100715.59
2022-08-21T22:59:53.796Z,100714.41
2022-08-21T23:02:37.922Z,100712.63
2022-08-21T23:05:30.654Z,100713.22
2022-08-21T23:08:24.191Z,100721.31
2022-08-21T23:10:58.077Z,100715.03
2022-08-21T23:13:24.855Z,100710.59
2022-08-21T23:16:29.539Z,100724.09
2022-08-21T23:19:34.399Z,100713.78
2022-08-21T23:22:42.231Z,100717.03
2022-08-21T23:25:27.646Z,100717.19
2022-08-21T23:28:07.030Z,100718.31
2022-08-21T23:31:06.681Z,100712.06
2022-08-21T23:34:01.048Z,100723.22
2022-08-21T23:37:25.270Z,100718.13
2022-08-21T23:40:22.099Z,100709.91
2022-08-21T23:43:21.603Z,100717.16
2022-08-21T23:46:33.450Z,100713.72
2022-08-21T23:52:15.659Z,100705.78
2022-08-21T23:55:03.246Z,100710.06
2022-08-21T23:57:48.688Z,100703.69
